ADDS METAR Data INFO
IDs: Format: Raw Decoded Include TAF

Data at: 2215 UTC 24 Jun 2018

KBDR 242152Z 19009KT 10SM FEW100 24/20 A2977 RMK AO2 LTG DSNT N SLP081 T02390200
KBDR 242052Z 18009KT 10SM SCT080 24/20 A2978 RMK AO2 RAE42 SLP085 P0000 60000 T02390200 58008
KBDR 241952Z 06005KT 8SM -RA SCT035 SCT043 BKN065 22/19 A2980 RMK AO2 LTG DSNT NW RAB50 SLP090 P0000 T02170189
KBDR 241852Z 15007KT 10SM SCT070 23/19 A2980 RMK AO2 SLP091 T02330194
KBDR 241752Z 17006KT 10SM BKN050 23/19 A2981 RMK AO2 SLP093 60000 T02330194 10244 20183 58010
KBDR 241652Z 20008KT 10SM CLR 24/19 A2982 RMK AO2 SLP099 T02390189
KBDR 241614Z 22006KT 10SM SCT014 23/19 A2983 RMK AO2 T02280189
KBDR 241552Z 22007KT 9SM OVC014 22/18 A2984 RMK AO2 SLP103 T02170183
KBDR 241518Z 22005KT 7SM SCT004 OVC011 21/18 A2984 RMK AO2 T02060178
KBDR 241452Z 22005KT 5SM BR OVC004 19/18 A2984 RMK AO2 SLP104 60000 T01940178 58001
KBDR 241436Z 22007KT 5SM BR OVC004 19/18 A2984 RMK AO2 T01940178
KBDR 241352Z 25005KT 9SM OVC006 20/17 A2984 RMK AO2 SLP104 T02000172
KBDR 241252Z 23006KT 9SM OVC009 19/17 A2985 RMK AO2 RAB12E30 SLP108 P0000 T01890172
KBDR 241224Z 23004KT 5SM -RA BR BKN008 OVC013 18/17 A2985 RMK AO2 RAB12 P0000 T01830172
KBDR 241152Z 24004KT 10SM FEW009 OVC014 18/17 A2984 RMK AO2 SLP105 T01830167 10183 20172 53009
KBDR 241052Z 23004KT 8SM OVC012 18/16 A2983 RMK AO2 SLP101 T01780161
KBDR 241015Z AUTO 21005KT 9SM FEW005 SCT009 OVC014 18/16 A2982 RMK AO2 T01780161
KBDR 240952Z AUTO 20005KT 9SM FEW005 OVC015 18/16 A2982 RMK AO2 SLP097 T01780161
KBDR 240852Z AUTO 17003KT 10SM FEW008 OVC020 17/16 A2981 RMK AO2 SLP095 T01720161 56001
KBDR 240752Z AUTO 00000KT 10SM OVC009 17/16 A2981 RMK AO2 SLP096 T01720156
KBDR 240652Z AUTO 13004KT 10SM BKN008 OVC018 17/16 A2981 RMK AO2 SLP096 T01720156
KBDR 240650Z AUTO 13003KT 10SM BKN008 OVC018 18/16 A2982 RMK AO2
KBDR 240618Z AUTO 00000KT 10SM SCT009 OVC019 17/16 A2982 RMK AO2 T01720156
KBDR 240552Z AUTO 03004KT 10SM OVC008 18/16 A2983 RMK AO2 CIG 007V010 SLP102 T01780156 10178 20172 58001
KBDR 240512Z AUTO 07003KT 10SM OVC009 18/16 A2984 RMK AO2 T01780156
KBDR 240452Z AUTO 05004KT 10SM OVC010 18/16 A2983 RMK AO2 CIG 009V013 SLP103 T01780156 401890161
KBDR 240352Z AUTO 36004KT 10SM OVC011 18/16 A2984 RMK AO2 SLP104 T01780156
KBDR 240252Z AUTO 00000KT 10SM OVC010 18/16 A2984 RMK AO2 SLP103 T01780156 50004
KBDR 240243Z AUTO 36004KT 10SM OVC010 18/16 A2984 RMK AO2 CIG 007V012 T01780156
KBDR 240228Z AUTO 36004KT 10SM BKN009 OVC016 18/16 A2984 RMK AO2 CIG 007V013 T01780156
KBDR 240215Z AUTO 03004KT 10SM FEW007 OVC016 18/16 A2984 RMK AO2 T01780156
KBDR 240152Z 03007KT 10SM FEW007 OVC014 18/16 A2984 RMK AO2 SLP105 T01780156
KBDR 240135Z 02003KT 10SM BKN010 OVC014 18/16 A2985 RMK AO2 T01780156
KBDR 240052Z 01005KT 7SM OVC009 18/16 A2984 RMK AO2 CIG 005V012 SLP106 T01780161
KBDR 232352Z 01005KT 2 1/2SM BR BKN005 OVC009 17/16 A2983 RMK AO2 SLP100 T01720161 10189 20172 53002
KBDR 232312Z 35005KT 2SM BR OVC007 18/16 A2982 RMK AO2 CIG 005V010 T01780161
KBDR 232252Z 01004KT 4SM BR OVC009 18/16 A2982 RMK AO2 SLP098 T01780161
KBDR 232152Z 36006KT 10SM OVC009 18/16 A2982 RMK AO2 SLP097 T01830156
KBDR 232052Z 01007KT 10SM OVC009 18/16 A2982 RMK AO2 SLP097 T01830156 58010
KBDR 231952Z 02005KT 10SM OVC009 18/16 A2983 RMK AO2 SLP101 T01830156
KBDR 231936Z 36004KT 10SM OVC009 18/16 A2984 RMK AO2 T01830156
KBDR 231852Z 05007KT 10SM OVC010 18/15 A2984 RMK AO2 SLP105 T01830150
KBDR 231804Z 05008KT 10SM OVC010 18/15 A2985 RMK AO2 T01780150
KBDR 231752Z 04007KT 10SM OVC009 18/15 A2985 RMK AO2 SLP108 T01780150 10183 20161 58016
KBDR 231740Z 04007KT 10SM OVC010 18/15 A2985 RMK AO2 T01780150
KBDR 231659Z 04008KT 10SM OVC007 17/14 A2986 RMK AO2 CIG 006V011 T01720144
KBDR 231652Z 02010KT 2SM HZ OVC007 17/14 A2986 RMK AO2 CIG 005V011 SLP112 T01720144
KBDR 231602Z 03009KT 2SM BR OVC007 16/15 A2989 RMK AO2 CIG 004V012 T01610150
KBDR 231552Z 03008KT 3SM BR OVC008 16/15 A2989 RMK AO2 SLP121 T01610150
KBDR 231452Z 05010KT 3SM BR OVC008 16/14 A2990 RMK AO2 CIG 005V012 SLP123 T01610144 56011
KBDR 231442Z 05008KT 3SM BR OVC010 16/14 A2990 RMK AO2 CIG 005V012 T01610144
KBDR 231440Z 06009KT 2 1/2SM BR OVC008 16/14 A2990 RMK AO2 CIG 005V012 T01610144
KBDR 231431Z 07010KT 2 1/2SM BR OVC010 16/14 A2990 RMK AO2 CIG 006V012 T01610144
KBDR 231352Z 08014KT 10SM OVC012 17/13 A2990 RMK AO2 SLP125 T01670133
KBDR 231317Z 06013KT 10SM OVC014 17/13 A2991 RMK AO2 T01670128
KBDR 231252Z 07015KT 10SM OVC016 17/12 A2991 RMK AO2 SLP127 T01670122
KBDR 231152Z 07016KT 10SM OVC018 17/12 A2993 RMK AO2 RAE1057 SLP134 P0000 60000 70001 T01670122 10183 20167 55004
KBDR 231052Z 08015G23KT 10SM -RA OVC024 17/13 A2992 RMK AO2 RAB05E22B41 SLP132 P0000 T01720128